Terminal Aerodrome Forecast
Issued by NWS Amarillo, TX

Home | Current Version | Previous Version | Text Only | Print | Product List | Glossary On
Versions: 1 2 3 4 5 6 7 8 9 10 11 12
000
FTUS44 KAMA 181720
TAFGUY
TAF
KGUY 181720Z 1818/1918 11008KT P6SM FEW300
     FM190400 18006KT P6SM SCT300
     FM191700 16012G20KT P6SM FEW200 BKN300=

USA.gov is the U.S. government's official web portal to all federal, state and local government web resources and services.